sensor_id;sensor_type;location;lat;lon;timestamp;pressure;altitude;pressure_sealevel;temperature;humidity
50310;BME280;36207;51.850;21.698;2023-09-08T00:01:39;100904.86;;;17.67;65.64
50310;BME280;36207;51.850;21.698;2023-09-08T00:04:05;100905.77;;;17.68;65.65
50310;BME280;36207;51.850;21.698;2023-09-08T00:06:32;100904.57;;;17.68;65.70
50310;BME280;36207;51.850;21.698;2023-09-08T00:08:57;100903.40;;;17.65;65.79
50310;BME280;36207;51.850;21.698;2023-09-08T00:11:23;100904.06;;;17.63;65.77
50310;BME280;36207;51.850;21.698;2023-09-08T00:13:49;100901.73;;;17.63;65.88
50310;BME280;36207;51.850;21.698;2023-09-08T00:16:16;100904.57;;;17.63;65.97
50310;BME280;36207;51.850;21.698;2023-09-08T00:18:42;100905.30;;;17.62;65.97
50310;BME280;36207;51.850;21.698;2023-09-08T00:21:08;100901.86;;;17.62;66.04
50310;BME280;36207;51.850;21.698;2023-09-08T00:23:34;100900.85;;;17.63;65.85
50310;BME280;36207;51.850;21.698;2023-09-08T00:25:59;100899.95;;;17.62;65.97
50310;BME280;36207;51.850;21.698;2023-09-08T00:28:25;100895.79;;;17.59;65.85
50310;BME280;36207;51.850;21.698;2023-09-08T00:30:51;100892.50;;;17.58;66.08
50310;BME280;36207;51.850;21.698;2023-09-08T00:33:17;100892.86;;;17.57;65.84
50310;BME280;36207;51.850;21.698;2023-09-08T00:35:48;100890.53;;;17.57;66.16
50310;BME280;36207;51.850;21.698;2023-09-08T00:38:14;100892.45;;;17.56;66.16
50310;BME280;36207;51.850;21.698;2023-09-08T00:40:40;100886.58;;;17.53;66.11
50310;BME280;36207;51.850;21.698;2023-09-08T00:43:06;100892.05;;;17.52;65.93
50310;BME280;36207;51.850;21.698;2023-09-08T00:45:40;100892.51;;;17.50;66.32
50310;BME280;36207;51.850;21.698;2023-09-08T00:48:07;100890.42;;;17.47;66.35
50310;BME280;36207;51.850;21.698;2023-09-08T00:50:35;100887.88;;;17.44;67.31
50310;BME280;36207;51.850;21.698;2023-09-08T00:53:06;100887.58;;;17.41;67.34
50310;BME280;36207;51.850;21.698;2023-09-08T00:55:34;100885.73;;;17.37;67.05
50310;BME280;36207;51.850;21.698;2023-09-08T00:58:00;100885.02;;;17.34;66.87
50310;BME280;36207;51.850;21.698;2023-09-08T01:00:26;100881.79;;;17.33;66.76
50310;BME280;36207;51.850;21.698;2023-09-08T01:02:53;100885.02;;;17.29;66.78
50310;BME280;36207;51.850;21.698;2023-09-08T01:05:19;100889.30;;;17.24;66.75
50310;BME280;36207;51.850;21.698;2023-09-08T01:07:47;100887.62;;;17.17;66.73
50310;BME280;36207;51.850;21.698;2023-09-08T01:10:15;100885.81;;;17.13;66.63
50310;BME280;36207;51.850;21.698;2023-09-08T01:12:41;100883.56;;;17.10;66.71
50310;BME280;36207;51.850;21.698;2023-09-08T01:15:07;100882.07;;;17.08;66.65
50310;BME280;36207;51.850;21.698;2023-09-08T01:17:34;100882.13;;;17.06;66.80
50310;BME280;36207;51.850;21.698;2023-09-08T01:20:06;100881.46;;;17.03;66.79
50310;BME280;36207;51.850;21.698;2023-09-08T01:22:48;100881.53;;;17.00;66.82
50310;BME280;36207;51.850;21.698;2023-09-08T01:27:49;100876.68;;;16.94;66.88
50310;BME280;36207;51.850;21.698;2023-09-08T01:30:16;100880.89;;;16.89;66.97
50310;BME280;36207;51.850;21.698;2023-09-08T01:32:44;100882.81;;;16.85;66.84
50310;BME280;36207;51.850;21.698;2023-09-08T01:35:10;100886.28;;;16.82;67.05
50310;BME280;36207;51.850;21.698;2023-09-08T01:37:40;100884.74;;;16.77;67.13
50310;BME280;36207;51.850;21.698;2023-09-08T01:40:07;100884.83;;;16.72;67.22
50310;BME280;36207;51.850;21.698;2023-09-08T01:42:34;100882.60;;;16.69;67.07
50310;BME280;36207;51.850;21.698;2023-09-08T01:45:00;100884.62;;;16.67;67.36
50310;BME280;36207;51.850;21.698;2023-09-08T01:47:29;100888.46;;;16.65;67.57
50310;BME280;36207;51.850;21.698;2023-09-08T01:49:55;100884.83;;;16.60;67.58
50310;BME280;36207;51.850;21.698;2023-09-08T01:52:21;100887.81;;;16.58;67.58
50310;BME280;36207;51.850;21.698;2023-09-08T01:54:47;100882.38;;;16.58;67.56
50310;BME280;36207;51.850;21.698;2023-09-08T01:57:13;100882.36;;;16.57;67.89
50310;BME280;36207;51.850;21.698;2023-09-08T01:59:39;100878.78;;;16.55;68.00
50310;BME280;36207;51.850;21.698;2023-09-08T02:02:05;100873.56;;;16.55;67.77
50310;BME280;36207;51.850;21.698;2023-09-08T02:04:32;100870.54;;;16.56;67.97
50310;BME280;36207;51.850;21.698;2023-09-08T02:06:58;100871.80;;;16.59;67.76
50310;BME280;36207;51.850;21.698;2023-09-08T02:09:35;100868.88;;;16.62;67.92
50310;BME280;36207;51.850;21.698;2023-09-08T02:12:02;100866.94;;;16.66;68.10
50310;BME280;36207;51.850;21.698;2023-09-08T02:14:29;100869.07;;;16.68;68.11
50310;BME280;36207;51.850;21.698;2023-09-08T02:16:56;100871.94;;;16.68;68.22
50310;BME280;36207;51.850;21.698;2023-09-08T02:19:22;100868.27;;;16.67;68.22
50310;BME280;36207;51.850;21.698;2023-09-08T02:21:48;100868.69;;;16.65;68.20
50310;BME280;36207;51.850;21.698;2023-09-08T02:24:15;100870.11;;;16.62;68.11
50310;BME280;36207;51.850;21.698;2023-09-08T02:26:41;100866.49;;;16.60;68.33
50310;BME280;36207;51.850;21.698;2023-09-08T02:29:07;100863.91;;;16.58;68.53
50310;BME280;36207;51.850;21.698;2023-09-08T02:31:33;100863.77;;;16.57;68.36
50310;BME280;36207;51.850;21.698;2023-09-08T02:34:00;100863.36;;;16.56;68.51
50310;BME280;36207;51.850;21.698;2023-09-08T02:36:26;100854.61;;;16.56;68.35
50310;BME280;36207;51.850;21.698;2023-09-08T02:38:53;100850.25;;;16.56;68.66
50310;BME280;36207;51.850;21.698;2023-09-08T02:41:19;100848.53;;;16.54;68.62
50310;BME280;36207;51.850;21.698;2023-09-08T02:43:46;100846.62;;;16.52;68.58
50310;BME280;36207;51.850;21.698;2023-09-08T02:46:12;100846.08;;;16.51;68.45
50310;BME280;36207;51.850;21.698;2023-09-08T02:48:38;100847.89;;;16.49;68.68
50310;BME280;36207;51.850;21.698;2023-09-08T02:51:05;100848.84;;;16.47;68.53
50310;BME280;36207;51.850;21.698;2023-09-08T02:53:31;100849.36;;;16.46;68.62
50310;BME280;36207;51.850;21.698;2023-09-08T02:55:57;100850.51;;;16.43;68.70
50310;BME280;36207;51.850;21.698;2023-09-08T02:58:24;100851.88;;;16.38;68.60
50310;BME280;36207;51.850;21.698;2023-09-08T03:00:50;100852.47;;;16.33;68.62
50310;BME280;36207;51.850;21.698;2023-09-08T03:03:19;100848.78;;;16.28;68.89
50310;BME280;36207;51.850;21.698;2023-09-08T03:05:45;100848.59;;;16.25;68.82
50310;BME280;36207;51.850;21.698;2023-09-08T03:08:11;100844.67;;;16.23;68.92
50310;BME280;36207;51.850;21.698;2023-09-08T03:10:37;100844.79;;;16.21;68.85
50310;BME280;36207;51.850;21.698;2023-09-08T03:13:04;100842.79;;;16.19;68.88
50310;BME280;36207;51.850;21.698;2023-09-08T03:15:30;100841.48;;;16.18;69.11
50310;BME280;36207;51.850;21.698;2023-09-08T03:17:59;100839.02;;;16.15;69.10
50310;BME280;36207;51.850;21.698;2023-09-08T03:20:25;100840.48;;;16.10;68.93
50310;BME280;36207;51.850;21.698;2023-09-08T03:22:54;100838.39;;;16.07;69.04
50310;BME280;36207;51.850;21.698;2023-09-08T03:25:21;100837.19;;;16.02;69.12
50310;BME280;36207;51.850;21.698;2023-09-08T03:27:47;100836.27;;;15.97;68.95
50310;BME280;36207;51.850;21.698;2023-09-08T03:30:13;100835.38;;;15.95;69.13
50310;BME280;36207;51.850;21.698;2023-09-08T03:32:39;100835.27;;;15.92;69.01
50310;BME280;36207;51.850;21.698;2023-09-08T03:35:05;100835.20;;;15.90;69.08
50310;BME280;36207;51.850;21.698;2023-09-08T03:37:34;100835.38;;;15.88;69.34
50310;BME280;36207;51.850;21.698;2023-09-08T03:40:01;100832.14;;;15.88;69.31
50310;BME280;36207;51.850;21.698;2023-09-08T03:42:27;100830.20;;;15.88;69.33
50310;BME280;36207;51.850;21.698;2023-09-08T03:44:53;100828.80;;;15.86;69.11
50310;BME280;36207;51.850;21.698;2023-09-08T03:47:19;100827.19;;;15.81;69.25
50310;BME280;36207;51.850;21.698;2023-09-08T03:49:44;100827.52;;;15.78;69.27
50310;BME280;36207;51.850;21.698;2023-09-08T03:52:10;100824.11;;;15.75;69.38
50310;BME280;36207;51.850;21.698;2023-09-08T03:54:37;100824.23;;;15.71;69.43
50310;BME280;36207;51.850;21.698;2023-09-08T03:57:04;100824.56;;;15.69;69.16
50310;BME280;36207;51.850;21.698;2023-09-08T03:59:30;100828.86;;;15.65;69.53
50310;BME280;36207;51.850;21.698;2023-09-08T04:01:56;100826.55;;;15.65;69.49
50310;BME280;36207;51.850;21.698;2023-09-08T04:04:22;100828.89;;;15.67;69.58
50310;BME280;36207;51.850;21.698;2023-09-08T04:06:48;100825.58;;;15.68;69.58
50310;BME280;36207;51.850;21.698;2023-09-08T04:09:14;100823.96;;;15.68;69.93
50310;BME280;36207;51.850;21.698;2023-09-08T04:11:41;100827.64;;;15.67;69.71
50310;BME280;36207;51.850;21.698;2023-09-08T04:14:06;100825.11;;;15.67;70.06
50310;BME280;36207;51.850;21.698;2023-09-08T04:16:32;100826.65;;;15.69;70.15
50310;BME280;36207;51.850;21.698;2023-09-08T04:18:58;100827.25;;;15.70;70.05
50310;BME280;36207;51.850;21.698;2023-09-08T04:21:24;100828.11;;;15.73;70.23
50310;BME280;36207;51.850;21.698;2023-09-08T04:23:50;100825.80;;;15.80;70.10
50310;BME280;36207;51.850;21.698;2023-09-08T04:26:16;100821.23;;;15.88;70.28
50310;BME280;36207;51.850;21.698;2023-09-08T04:28:42;100821.80;;;15.96;70.56
50310;BME280;36207;51.850;21.698;2023-09-08T04:31:07;100821.90;;;16.04;70.67
50310;BME280;36207;51.850;21.698;2023-09-08T04:33:33;100821.29;;;16.10;70.71
50310;BME280;36207;51.850;21.698;2023-09-08T04:35:59;100820.71;;;16.16;70.85
50310;BME280;36207;51.850;21.698;2023-09-08T04:38:25;100818.20;;;16.24;70.82
50310;BME280;36207;51.850;21.698;2023-09-08T04:40:51;100817.48;;;16.33;70.83
50310;BME280;36207;51.850;21.698;2023-09-08T04:43:17;100815.60;;;16.39;70.88
50310;BME280;36207;51.850;21.698;2023-09-08T04:45:42;100811.05;;;16.43;70.97
50310;BME280;36207;51.850;21.698;2023-09-08T04:48:08;100811.05;;;16.48;70.75
50310;BME280;36207;51.850;21.698;2023-09-08T04:50:34;100811.25;;;16.53;70.78
50310;BME280;36207;51.850;21.698;2023-09-08T04:53:00;100809.25;;;16.62;70.76
50310;BME280;36207;51.850;21.698;2023-09-08T04:55:26;100811.72;;;16.72;70.97
50310;BME280;36207;51.850;21.698;2023-09-08T04:57:52;100808.74;;;16.80;70.88
50310;BME280;36207;51.850;21.698;2023-09-08T05:00:18;100808.54;;;16.87;70.89
50310;BME280;36207;51.850;21.698;2023-09-08T05:02:44;100811.30;;;16.91;71.07
50310;BME280;36207;51.850;21.698;2023-09-08T05:05:10;100811.27;;;16.96;71.15
50310;BME280;36207;51.850;21.698;2023-09-08T05:07:36;100807.52;;;17.00;71.14
50310;BME280;36207;51.850;21.698;2023-09-08T05:10:02;100806.08;;;17.03;71.08
50310;BME280;36207;51.850;21.698;2023-09-08T05:12:28;100806.13;;;17.06;71.01
50310;BME280;36207;51.850;21.698;2023-09-08T05:14:54;100804.64;;;17.12;71.26
50310;BME280;36207;51.850;21.698;2023-09-08T05:17:26;100800.77;;;17.20;71.27
50310;BME280;36207;51.850;21.698;2023-09-08T05:19:52;100799.61;;;17.26;71.34
50310;BME280;36207;51.850;21.698;2023-09-08T05:22:17;100802.17;;;17.32;71.25
50310;BME280;36207;51.850;21.698;2023-09-08T05:24:43;100798.08;;;17.40;71.41
50310;BME280;36207;51.850;21.698;2023-09-08T05:27:09;100797.49;;;17.50;71.27
50310;BME280;36207;51.850;21.698;2023-09-08T05:29:35;100794.98;;;17.62;71.53
50310;BME280;36207;51.850;21.698;2023-09-08T05:32:01;100794.66;;;17.72;71.38
50310;BME280;36207;51.850;21.698;2023-09-08T05:34:27;100793.02;;;17.84;71.42
50310;BME280;36207;51.850;21.698;2023-09-08T05:36:53;100791.90;;;17.97;71.33
50310;BME280;36207;51.850;21.698;2023-09-08T05:39:19;100799.37;;;18.11;71.23
50310;BME280;36207;51.850;21.698;2023-09-08T05:41:45;100800.45;;;18.25;71.21
50310;BME280;36207;51.850;21.698;2023-09-08T05:44:11;100801.04;;;18.40;71.08
50310;BME280;36207;51.850;21.698;2023-09-08T05:46:37;100801.45;;;18.57;71.28
50310;BME280;36207;51.850;21.698;2023-09-08T05:49:03;100801.74;;;18.73;71.20
50310;BME280;36207;51.850;21.698;2023-09-08T05:51:29;100801.15;;;18.89;71.17
50310;BME280;36207;51.850;21.698;2023-09-08T05:53:55;100800.80;;;19.03;70.96
50310;BME280;36207;51.850;21.698;2023-09-08T05:56:29;100800.74;;;19.14;70.53
50310;BME280;36207;51.850;21.698;2023-09-08T05:58:55;100797.80;;;19.25;70.57
50310;BME280;36207;51.850;21.698;2023-09-08T06:01:21;100792.96;;;19.39;70.50
50310;BME280;36207;51.850;21.698;2023-09-08T06:03:47;100793.10;;;19.51;69.96
50310;BME280;36207;51.850;21.698;2023-09-08T06:06:13;100791.21;;;19.59;70.17
50310;BME280;36207;51.850;21.698;2023-09-08T06:08:39;100790.06;;;19.72;70.45
50310;BME280;36207;51.850;21.698;2023-09-08T06:11:05;100791.27;;;19.86;70.28
50310;BME280;36207;51.850;21.698;2023-09-08T06:13:31;100789.85;;;20.02;70.48
50310;BME280;36207;51.850;21.698;2023-09-08T06:15:57;100790.85;;;20.20;70.59
50310;BME280;36207;51.850;21.698;2023-09-08T06:18:23;100790.85;;;20.37;70.61
50310;BME280;36207;51.850;21.698;2023-09-08T06:20:48;100789.45;;;20.50;69.87
50310;BME280;36207;51.850;21.698;2023-09-08T06:23:15;100790.52;;;20.58;69.42
50310;BME280;36207;51.850;21.698;2023-09-08T06:25:41;100789.45;;;20.66;69.63
50310;BME280;36207;51.850;21.698;2023-09-08T06:28:07;100790.05;;;20.80;69.45
50310;BME280;36207;51.850;21.698;2023-09-08T06:30:33;100787.02;;;20.90;68.85
50310;BME280;36207;51.850;21.698;2023-09-08T06:32:59;100788.34;;;20.96;68.63
50310;BME280;36207;51.850;21.698;2023-09-08T06:35:26;100788.21;;;21.05;68.79
50310;BME280;36207;51.850;21.698;2023-09-08T06:37:52;100784.09;;;21.17;68.50
50310;BME280;36207;51.850;21.698;2023-09-08T06:40:18;100782.14;;;21.30;68.52
50310;BME280;36207;51.850;21.698;2023-09-08T06:42:44;100783.84;;;21.44;67.91
50310;BME280;36207;51.850;21.698;2023-09-08T06:45:10;100787.59;;;21.54;67.91
50310;BME280;36207;51.850;21.698;2023-09-08T06:47:36;100787.67;;;21.67;67.89
50310;BME280;36207;51.850;21.698;2023-09-08T06:50:02;100788.86;;;21.81;67.44
50310;BME280;36207;51.850;21.698;2023-09-08T06:52:28;100787.96;;;21.94;67.03
50310;BME280;36207;51.850;21.698;2023-09-08T06:54:54;100787.00;;;22.06;66.14
50310;BME280;36207;51.850;21.698;2023-09-08T06:57:20;100784.11;;;22.14;65.87
50310;BME280;36207;51.850;21.698;2023-09-08T06:59:46;100786.09;;;22.20;66.01
50310;BME280;36207;51.850;21.698;2023-09-08T07:02:12;100786.67;;;22.31;66.40
50310;BME280;36207;51.850;21.698;2023-09-08T07:04:38;100783.56;;;22.45;66.58
50310;BME280;36207;51.850;21.698;2023-09-08T07:07:04;100787.17;;;22.62;66.10
50310;BME280;36207;51.850;21.698;2023-09-08T07:09:36;100788.70;;;22.73;65.02
50310;BME280;36207;51.850;21.698;2023-09-08T07:12:05;100784.11;;;22.82;65.30
50310;BME280;36207;51.850;21.698;2023-09-08T07:14:34;100781.09;;;22.95;65.12
50310;BME280;36207;51.850;21.698;2023-09-08T07:17:00;100780.90;;;23.09;64.74
50310;BME280;36207;51.850;21.698;2023-09-08T07:19:26;100782.06;;;23.16;64.49
50310;BME280;36207;51.850;21.698;2023-09-08T07:21:53;100784.54;;;23.29;64.81
50310;BME280;36207;51.850;21.698;2023-09-08T07:24:19;100786.84;;;23.42;64.36
50310;BME280;36207;51.850;21.698;2023-09-08T07:26:45;100785.98;;;23.55;64.03
50310;BME280;36207;51.850;21.698;2023-09-08T07:29:10;100787.52;;;23.68;63.71
50310;BME280;36207;51.850;21.698;2023-09-08T07:31:37;100789.66;;;23.81;62.25
50310;BME280;36207;51.850;21.698;2023-09-08T07:34:04;100784.29;;;23.93;63.21
50310;BME280;36207;51.850;21.698;2023-09-08T07:36:30;100782.73;;;24.10;62.97
50310;BME280;36207;51.850;21.698;2023-09-08T07:38:55;100782.66;;;24.20;62.24
50310;BME280;36207;51.850;21.698;2023-09-08T07:41:21;100781.48;;;24.33;62.99
50310;BME280;36207;51.850;21.698;2023-09-08T07:43:47;100782.77;;;24.50;62.51
50310;BME280;36207;51.850;21.698;2023-09-08T07:46:13;100784.19;;;24.62;62.25
50310;BME280;36207;51.850;21.698;2023-09-08T07:48:39;100781.05;;;24.69;61.96
50310;BME280;36207;51.850;21.698;2023-09-08T07:51:05;100780.18;;;24.78;61.45
50310;BME280;36207;51.850;21.698;2023-09-08T07:53:31;100779.88;;;24.89;61.55
50310;BME280;36207;51.850;21.698;2023-09-08T07:55:57;100780.52;;;25.02;61.40
50310;BME280;36207;51.850;21.698;2023-09-08T07:58:23;100779.71;;;25.17;61.57
50310;BME280;36207;51.850;21.698;2023-09-08T08:00:49;100781.48;;;25.29;61.26
50310;BME280;36207;51.850;21.698;2023-09-08T08:03:15;100778.44;;;25.43;60.75
50310;BME280;36207;51.850;21.698;2023-09-08T08:05:41;100780.81;;;25.57;60.57
50310;BME280;36207;51.850;21.698;2023-09-08T08:08:07;100773.64;;;25.70;60.38
50310;BME280;36207;51.850;21.698;2023-09-08T08:10:35;100771.33;;;25.82;60.01
50310;BME280;36207;51.850;21.698;2023-09-08T08:13:01;100770.48;;;25.97;60.37
50310;BME280;36207;51.850;21.698;2023-09-08T08:15:38;100769.14;;;26.12;60.34
50310;BME280;36207;51.850;21.698;2023-09-08T08:18:05;100769.13;;;26.25;59.02
50310;BME280;36207;51.850;21.698;2023-09-08T08:20:32;100769.13;;;26.36;58.43
50310;BME280;36207;51.850;21.698;2023-09-08T08:23:03;100772.60;;;26.43;58.45
50310;BME280;36207;51.850;21.698;2023-09-08T08:25:30;100774.64;;;26.54;58.56
50310;BME280;36207;51.850;21.698;2023-09-08T08:27:56;100775.20;;;26.66;58.25
50310;BME280;36207;51.850;21.698;2023-09-08T08:30:24;100776.73;;;26.76;58.26
50310;BME280;36207;51.850;21.698;2023-09-08T08:32:50;100777.80;;;26.89;57.52
50310;BME280;36207;51.850;21.698;2023-09-08T08:35:22;100774.80;;;26.93;55.77
50310;BME280;36207;51.850;21.698;2023-09-08T08:37:48;100771.67;;;26.90;54.33
50310;BME280;36207;51.850;21.698;2023-09-08T08:40:14;100769.91;;;26.89;54.34
50310;BME280;36207;51.850;21.698;2023-09-08T08:42:41;100766.20;;;26.98;56.19
50310;BME280;36207;51.850;21.698;2023-09-08T08:45:08;100765.86;;;27.12;55.88
50310;BME280;36207;51.850;21.698;2023-09-08T08:47:34;100767.39;;;27.24;55.18
50310;BME280;36207;51.850;21.698;2023-09-08T08:50:01;100764.17;;;27.34;55.85
50310;BME280;36207;51.850;21.698;2023-09-08T08:52:29;100768.28;;;27.40;54.61
50310;BME280;36207;51.850;21.698;2023-09-08T08:54:55;100767.73;;;27.44;55.32
50310;BME280;36207;51.850;21.698;2023-09-08T08:57:22;100765.42;;;27.54;55.69
50310;BME280;36207;51.850;21.698;2023-09-08T08:59:49;100763.41;;;27.71;56.78
50310;BME280;36207;51.850;21.698;2023-09-08T09:02:18;100760.67;;;27.92;56.95
50310;BME280;36207;51.850;21.698;2023-09-08T09:04:45;100761.52;;;28.06;55.13
50310;BME280;36207;51.850;21.698;2023-09-08T09:07:11;100756.89;;;28.16;54.82
50310;BME280;36207;51.850;21.698;2023-09-08T09:09:37;100756.89;;;28.20;53.74
50310;BME280;36207;51.850;21.698;2023-09-08T09:12:06;100760.59;;;28.23;53.14
50310;BME280;36207;51.850;21.698;2023-09-08T09:14:33;100759.98;;;28.25;52.40
50310;BME280;36207;51.850;21.698;2023-09-08T09:16:59;100757.77;;;28.21;52.62
50310;BME280;36207;51.850;21.698;2023-09-08T09:19:27;100755.48;;;28.28;53.78
50310;BME280;36207;51.850;21.698;2023-09-08T09:21:55;100754.47;;;28.37;53.29
50310;BME280;36207;51.850;21.698;2023-09-08T09:24:39;100753.84;;;28.47;53.65
50310;BME280;36207;51.850;21.698;2023-09-08T09:27:07;100753.85;;;28.63;51.87
50310;BME280;36207;51.850;21.698;2023-09-08T09:29:35;100750.27;;;28.66;52.07
50310;BME280;36207;51.850;21.698;2023-09-08T09:32:10;100751.01;;;28.59;51.06
50310;BME280;36207;51.850;21.698;2023-09-08T09:34:35;100747.16;;;28.38;50.86
50310;BME280;36207;51.850;21.698;2023-09-08T09:37:12;100746.05;;;28.26;50.85
50310;BME280;36207;51.850;21.698;2023-09-08T09:39:38;100743.52;;;28.22;49.95
50310;BME280;36207;51.850;21.698;2023-09-08T09:42:04;100741.77;;;28.02;49.62
50310;BME280;36207;51.850;21.698;2023-09-08T09:44:31;100740.86;;;27.87;50.31
50310;BME280;36207;51.850;21.698;2023-09-08T09:46:56;100739.05;;;27.83;49.73
50310;BME280;36207;51.850;21.698;2023-09-08T09:49:23;100735.88;;;27.83;49.95
50310;BME280;36207;51.850;21.698;2023-09-08T09:51:53;100733.88;;;27.75;49.89
50310;BME280;36207;51.850;21.698;2023-09-08T09:54:19;100732.84;;;27.78;50.91
50310;BME280;36207;51.850;21.698;2023-09-08T09:56:46;100735.48;;;27.78;50.42
50310;BME280;36207;51.850;21.698;2023-09-08T09:59:17;100732.23;;;27.74;49.26
50310;BME280;36207;51.850;21.698;2023-09-08T10:01:43;100730.88;;;27.80;48.89
50310;BME280;36207;51.850;21.698;2023-09-08T10:04:11;100727.09;;;27.84;49.48
50310;BME280;36207;51.850;21.698;2023-09-08T10:06:39;100729.11;;;27.77;48.31
50310;BME280;36207;51.850;21.698;2023-09-08T10:09:06;100728.73;;;27.55;47.62
50310;BME280;36207;51.850;21.698;2023-09-08T10:11:44;100725.55;;;27.38;48.75
50310;BME280;36207;51.850;21.698;2023-09-08T10:14:14;100724.08;;;27.40;49.48
50310;BME280;36207;51.850;21.698;2023-09-08T10:16:43;100724.56;;;27.50;47.91
50310;BME280;36207;51.850;21.698;2023-09-08T10:19:10;100720.29;;;27.49;48.46
50310;BME280;36207;51.850;21.698;2023-09-08T10:21:41;100719.13;;;27.56;48.68
50310;BME280;36207;51.850;21.698;2023-09-08T10:26:41;100715.73;;;27.53;48.32
50310;BME280;36207;51.850;21.698;2023-09-08T10:29:10;100713.05;;;27.41;48.03
50310;BME280;36207;51.850;21.698;2023-09-08T10:31:36;100713.43;;;27.27;48.16
50310;BME280;36207;51.850;21.698;2023-09-08T10:34:03;100714.78;;;27.16;48.61
50310;BME280;36207;51.850;21.698;2023-09-08T10:36:29;100712.17;;;27.08;48.91
50310;BME280;36207;51.850;21.698;2023-09-08T10:39:32;100705.73;;;26.97;48.02
50310;BME280;36207;51.850;21.698;2023-09-08T10:47:54;100697.23;;;26.79;49.43
50310;BME280;36207;51.850;21.698;2023-09-08T10:50:27;100696.35;;;26.76;49.51
50310;BME280;36207;51.850;21.698;2023-09-08T10:55:39;100696.39;;;26.73;49.58
50310;BME280;36207;51.850;21.698;2023-09-08T10:58:06;100693.69;;;26.71;49.24
50310;BME280;36207;51.850;21.698;2023-09-08T11:00:51;100691.27;;;26.67;49.38
50310;BME280;36207;51.850;21.698;2023-09-08T11:03:27;100685.95;;;26.65;49.38
50310;BME280;36207;51.850;21.698;2023-09-08T11:05:55;100688.60;;;26.67;49.58
50310;BME280;36207;51.850;21.698;2023-09-08T11:08:21;100686.45;;;26.89;50.05
50310;BME280;36207;51.850;21.698;2023-09-08T11:10:48;100683.09;;;27.15;48.98
50310;BME280;36207;51.850;21.698;2023-09-08T11:13:14;100677.18;;;27.38;48.76
50310;BME280;36207;51.850;21.698;2023-09-08T11:15:40;100676.27;;;27.56;48.10
50310;BME280;36207;51.850;21.698;2023-09-08T11:18:07;100675.77;;;27.74;48.07
50310;BME280;36207;51.850;21.698;2023-09-08T11:20:34;100675.87;;;27.91;47.97
50310;BME280;36207;51.850;21.698;2023-09-08T11:23:00;100674.33;;;28.09;48.78
50310;BME280;36207;51.850;21.698;2023-09-08T11:25:26;100670.64;;;28.25;48.90
50310;BME280;36207;51.850;21.698;2023-09-08T11:27:52;100669.69;;;28.27;48.30
50310;BME280;36207;51.850;21.698;2023-09-08T11:30:18;100670.02;;;28.17;46.75
50310;BME280;36207;51.850;21.698;2023-09-08T11:32:44;100670.17;;;28.05;46.91
50310;BME280;36207;51.850;21.698;2023-09-08T11:35:10;100667.54;;;28.01;47.26
50310;BME280;36207;51.850;21.698;2023-09-08T11:37:38;100666.16;;;27.92;45.78
50310;BME280;36207;51.850;21.698;2023-09-08T11:40:05;100662.81;;;27.72;46.08
50310;BME280;36207;51.850;21.698;2023-09-08T11:42:41;100661.35;;;27.64;46.32
50310;BME280;36207;51.850;21.698;2023-09-08T11:45:15;100656.67;;;27.75;47.56
50310;BME280;36207;51.850;21.698;2023-09-08T11:47:44;100659.09;;;27.90;46.98
50310;BME280;36207;51.850;21.698;2023-09-08T11:50:10;100655.67;;;28.07;46.72
50310;BME280;36207;51.850;21.698;2023-09-08T11:52:45;100655.16;;;28.22;46.50
50310;BME280;36207;51.850;21.698;2023-09-08T11:55:12;100655.05;;;28.38;47.15
50310;BME280;36207;51.850;21.698;2023-09-08T11:57:40;100651.92;;;28.58;47.70
50310;BME280;36207;51.850;21.698;2023-09-08T12:00:07;100646.54;;;28.75;46.83
50310;BME280;36207;51.850;21.698;2023-09-08T12:02:36;100646.08;;;28.87;46.33
50310;BME280;36207;51.850;21.698;2023-09-08T12:05:05;100642.76;;;28.91;45.88
50310;BME280;36207;51.850;21.698;2023-09-08T12:07:31;100636.40;;;28.88;44.42
50310;BME280;36207;51.850;21.698;2023-09-08T12:09:57;100634.41;;;28.83;44.64
50310;BME280;36207;51.850;21.698;2023-09-08T12:12:25;100635.75;;;28.84;44.76
50310;BME280;36207;51.850;21.698;2023-09-08T12:14:52;100634.71;;;28.85;44.33
50310;BME280;36207;51.850;21.698;2023-09-08T12:17:18;100628.06;;;28.85;44.33
50310;BME280;36207;51.850;21.698;2023-09-08T12:19:44;100626.80;;;28.85;43.81
50310;BME280;36207;51.850;21.698;2023-09-08T12:22:10;100626.62;;;28.86;44.76
50310;BME280;36207;51.850;21.698;2023-09-08T12:24:56;100625.77;;;28.90;44.12
50310;BME280;36207;51.850;21.698;2023-09-08T12:27:23;100621.11;;;28.96;43.49
50310;BME280;36207;51.850;21.698;2023-09-08T12:29:55;100619.63;;;29.02;43.51
50310;BME280;36207;51.850;21.698;2023-09-08T12:32:23;100613.20;;;29.04;43.96
50310;BME280;36207;51.850;21.698;2023-09-08T12:34:49;100612.69;;;29.06;43.96
50310;BME280;36207;51.850;21.698;2023-09-08T12:37:22;100612.19;;;29.12;44.40
50310;BME280;36207;51.850;21.698;2023-09-08T12:39:49;100608.44;;;29.13;44.07
50310;BME280;36207;51.850;21.698;2023-09-08T12:42:18;100610.41;;;29.16;44.01
50310;BME280;36207;51.850;21.698;2023-09-08T12:44:44;100609.92;;;29.20;43.81
50310;BME280;36207;51.850;21.698;2023-09-08T12:47:10;100601.48;;;29.17;42.68
50310;BME280;36207;51.850;21.698;2023-09-08T12:49:39;100600.45;;;29.09;43.40
50310;BME280;36207;51.850;21.698;2023-09-08T12:52:06;100603.94;;;29.07;43.02
50310;BME280;36207;51.850;21.698;2023-09-08T12:54:32;100602.38;;;29.10;43.14